Forside
METAR-TAF:

METAR-TAF

Lufthavne :

Tateyama, Japan

Breddekreds: 34-59N, længdekreds: 139-50E, højde: 3 m

Aktuelle vejr

Denne rapport blev lavet for 23 timer og 34 minutter siden, kl. 01:06 UTC
Vind 14 kt fra sydvest med vindstød på up til 27 kt, varierende mellem sydsydvest og vest
Temperatur 24°C
Fugtighed 89%
Tryk 1007 hPa
Sigt 10 km eller mere
Spredte skyer i en højde af 800 ft
Brudte skyer i en højde af 1200 ft
Brudte skyer i en højde af 6000 ft
let regnbyger

METAR: RJTE 040106Z 23014G27KT 200V260 9999 -SHRA SCT008 BKN012 BKN060 24/22 Q1007 RMK 4ST008 5CU012 7SC060 A2975

Tid: 09:40 (00:40 UTC)


TAF: fraværende

Vejrobservationer og prognoser fra mere end 4000 lufthavne (METAR og TAF).

De gule og røde prikker repræsenterer de meteorologiske stationer.

Flyt musen over at se navnet på stationen.

Så klik over at se vejr observationer og prognoser.

At skifte det kort: Klik på de grønne knapper med et sort kors for at zoome ind; på den grønne knap med en bindestreg for at zoome ud; eller på de grønne pile for tilstødende kort.


METAR-TAF: